Home > Products > Valid Products > TAF

000
FTUS42 KRAH 290537 CCA
TAFFAY
TAF COR
KFAY 290537Z 2906/3006 00000KT P6SM SKC
     FM291600 21010G16KT P6SM SKC
     FM292230 22005KT P6SM SKC=



000
FTUS42 KRAH 290537 CCA
TAFFAY
TAF COR
KFAY 290537Z 2906/3006 00000KT P6SM SKC
     FM291600 21010G16KT P6SM SKC
     FM292230 22005KT P6SM SKC=



000
FTUS42 KRAH 290537 CCA
TAFRDU
TAF COR
KRDU 290537Z 2906/3006 00000KT P6SM SCT250
     FM291600 21010G16KT P6SM SKC
     FM292230 22005KT P6SM SKC=



000
FTUS42 KRAH 290537 CCA
TAFRDU
TAF COR
KRDU 290537Z 2906/3006 00000KT P6SM SCT250
     FM291600 21010G16KT P6SM SKC
     FM292230 22005KT P6SM SKC=



000
FTUS42 KRAH 290537 CCA
TAFGSO
TAF COR
KGSO 290537Z 2906/3006 00000KT P6SM SCT250
     FM291600 21010G16KT P6SM SKC
     FM292230 22005KT P6SM SKC=



000
FTUS42 KRAH 290537 CCA
TAFGSO
TAF COR
KGSO 290537Z 2906/3006 00000KT P6SM SCT250
     FM291600 21010G16KT P6SM SKC
     FM292230 22005KT P6SM SKC=



000
FTUS42 KRAH 290537 CCA
TAFINT
TAF COR
KINT 290537Z 2906/3006 00000KT P6SM SCT250
     FM291600 21010G16KT P6SM SKC
     FM292230 22005KT P6SM SKC=



000
FTUS42 KRAH 290537 CCA
TAFINT
TAF COR
KINT 290537Z 2906/3006 00000KT P6SM SCT250
     FM291600 21010G16KT P6SM SKC
     FM292230 22005KT P6SM SKC=



000
FTUS42 KRAH 290537 CCA
TAFRWI
TAF COR
KRWI 290537Z 2906/3006 00000KT P6SM FEW250
     FM291600 21010G16KT P6SM SKC
     FM292230 22005KT P6SM SKC=



000
FTUS42 KRAH 290537 CCA
TAFRWI
TAF COR
KRWI 290537Z 2906/3006 00000KT P6SM FEW250
     FM291600 21010G16KT P6SM SKC
     FM292230 22005KT P6SM SKC=



000
FTUS42 KRAH 290534
TAFRDU
TAF
KRDU 290534Z 2906/3006 00000KT P6SM SCT250
     FM291600 21010G16KT P6SM SKC=



000
FTUS42 KRAH 290534
TAFFAY
TAF
KFAY 290534Z 2906/3006 00000KT P6SM SKC
     FM291600 21010G16KT P6SM SKC=



000
FTUS42 KRAH 290534
TAFRWI
TAF
KRWI 290534Z 2906/3006 00000KT P6SM FEW250
     FM291600 21010G16KT P6SM SKC=



000
FTUS42 KRAH 290534
TAFGSO
TAF
KGSO 290534Z 2906/3006 00000KT P6SM SCT250
     FM291600 21010G16KT P6SM SKC=



000
FTUS42 KRAH 290534
TAFINT
TAF
KINT 290534Z 2906/3006 00000KT P6SM SCT250
     FM291600 21010G16KT P6SM SKC=



000
FTUS42 KRAH 290534
TAFFAY
TAF
KFAY 290534Z 2906/3006 00000KT P6SM SKC
     FM291600 21010G16KT P6SM SKC=



000
FTUS42 KRAH 290534
TAFRDU
TAF
KRDU 290534Z 2906/3006 00000KT P6SM SCT250
     FM291600 21010G16KT P6SM SKC=



000
FTUS42 KRAH 290534
TAFRWI
TAF
KRWI 290534Z 2906/3006 00000KT P6SM FEW250
     FM291600 21010G16KT P6SM SKC=



000
FTUS42 KRAH 290534
TAFGSO
TAF
KGSO 290534Z 2906/3006 00000KT P6SM SCT250
     FM291600 21010G16KT P6SM SKC=



000
FTUS42 KRAH 290534
TAFINT
TAF
KINT 290534Z 2906/3006 00000KT P6SM SCT250
     FM291600 21010G16KT P6SM SKC=



000
FTUS42 KRAH 290153 AAA
TAFGSO
TAF AMD
KGSO 290153Z 2902/2924 00000KT P6SM SCT250
     FM291600 21010G16KT P6SM SKC=



000
FTUS42 KRAH 290153 AAA
TAFRDU
TAF AMD
KRDU 290153Z 2902/2924 00000KT P6SM SCT250
     FM291600 21010G16KT P6SM SKC=



000
FTUS42 KRAH 290153 AAA
TAFRDU
TAF AMD
KRDU 290153Z 2902/2924 00000KT P6SM SCT250
     FM291600 21010G16KT P6SM SKC=



000
FTUS42 KRAH 290153 AAA
TAFGSO
TAF AMD
KGSO 290153Z 2902/2924 00000KT P6SM SCT250
     FM291600 21010G16KT P6SM SKC=



000
FTUS42 KRAH 290153 AAA
TAFGSO
TAF AMD
KGSO 290153Z 2902/2924 00000KT P6SM SCT250
     FM291600 21010G16KT P6SM SKC=



000
FTUS42 KRAH 290153 AAA
TAFRDU
TAF AMD
KRDU 290153Z 2902/2924 00000KT P6SM SCT250
     FM291600 21010G16KT P6SM SKC=



000
FTUS42 KRAH 290153 AAA
TAFGSO
TAF AMD
KGSO 290153Z 2902/2924 00000KT P6SM SCT250
     FM291600 21010G16KT P6SM SKC=



000
FTUS42 KRAH 282335
TAFINT
TAF
KINT 282335Z 2900/2924 00000KT P6SM SCT250
     FM291600 21010G16KT P6SM SKC=



000
FTUS42 KRAH 282335
TAFRDU
TAF
KRDU 282335Z 2900/2924 00000KT P6SM SCT250
     FM291600 21010G16KT P6SM SKC=



000
FTUS42 KRAH 282335
TAFGSO
TAF
KGSO 282335Z 2900/2924 00000KT P6SM SCT250
     FM291600 21010G16KT P6SM SKC=



000
FTUS42 KRAH 282335
TAFFAY
TAF
KFAY 282335Z 2900/2924 00000KT P6SM SKC
     FM291600 21010G16KT P6SM SKC=



000
FTUS42 KRAH 282335
TAFRWI
TAF
KRWI 282335Z 2900/2924 00000KT P6SM FEW250
     FM291600 21010G16KT P6SM SKC=



000
FTUS42 KRAH 282335
TAFINT
TAF
KINT 282335Z 2900/2924 00000KT P6SM SCT250
     FM291600 21010G16KT P6SM SKC=



000
FTUS42 KRAH 282335
TAFFAY
TAF
KFAY 282335Z 2900/2924 00000KT P6SM SKC
     FM291600 21010G16KT P6SM SKC=



000
FTUS42 KRAH 282335
TAFGSO
TAF
KGSO 282335Z 2900/2924 00000KT P6SM SCT250
     FM291600 21010G16KT P6SM SKC=



000
FTUS42 KRAH 282335
TAFRWI
TAF
KRWI 282335Z 2900/2924 00000KT P6SM FEW250
     FM291600 21010G16KT P6SM SKC=



000
FTUS42 KRAH 282335
TAFRDU
TAF
KRDU 282335Z 2900/2924 00000KT P6SM SCT250
     FM291600 21010G16KT P6SM SKC=



000
FTUS42 KRAH 281720
TAFRWI
TAF
KRWI 281720Z 2818/2918 32009KT P6SM SKC
     FM282300 VRB03KT P6SM FEW080 FEW250=



000
FTUS42 KRAH 281720
TAFFAY
TAF
KFAY 281720Z 2818/2918 36010KT P6SM SKC
     FM282300 VRB03KT P6SM FEW080=



000
FTUS42 KRAH 281720
TAFINT
TAF
KINT 281720Z 2818/2918 34004KT P6SM SKC
     FM282100 22003KT P6SM SCT080 SCT250=



000
FTUS42 KRAH 281720
TAFGSO
TAF
KGSO 281720Z 2818/2918 32007KT P6SM SCT250
     FM282100 22003KT P6SM SCT080 SCT250=



000
FTUS42 KRAH 281720
TAFRDU
TAF
KRDU 281720Z 2818/2918 33008KT P6SM FEW045 SCT250
     FM282000 VRB05KT P6SM FEW100 SCT250
     FM291100 21005KT P6SM SCT080 SCT250=



000
FTUS42 KRAH 281720
TAFGSO
TAF
KGSO 281720Z 2818/2918 32007KT P6SM SCT250
     FM282100 22003KT P6SM SCT080 SCT250=



000
FTUS42 KRAH 281720
TAFFAY
TAF
KFAY 281720Z 2818/2918 36010KT P6SM SKC
     FM282300 VRB03KT P6SM FEW080=



000
FTUS42 KRAH 281720
TAFRWI
TAF
KRWI 281720Z 2818/2918 32009KT P6SM SKC
     FM282300 VRB03KT P6SM FEW080 FEW250=



000
FTUS42 KRAH 281720
TAFRDU
TAF
KRDU 281720Z 2818/2918 33008KT P6SM FEW045 SCT250
     FM282000 VRB05KT P6SM FEW100 SCT250
     FM291100 21005KT P6SM SCT080 SCT250=



000
FTUS42 KRAH 281720
TAFINT
TAF
KINT 281720Z 2818/2918 34004KT P6SM SKC
     FM282100 22003KT P6SM SCT080 SCT250=



000
FTUS42 KRAH 281132
TAFRDU
TAF
KRDU 281132Z 2812/2912 32007KT P6SM SKC
      TEMPO 2813/2816 33010G17KT
     FM282000 28006KT P6SM FEW100
     FM290300 VRB03KT P6SM SCT080=



000
FTUS42 KRAH 281132
TAFFAY
TAF
KFAY 281132Z 2812/2912 32008KT P6SM SKC
      TEMPO 2813/2816 33010G16KT
     FM282300 VRB03KT P6SM FEW080=



000
FTUS42 KRAH 281132
TAFRWI
TAF
KRWI 281132Z 2812/2912 32008KT P6SM SKC
     FM282300 VRB03KT P6SM FEW080=



000
FTUS42 KRAH 281132
TAFINT
TAF
KINT 281132Z 2812/2912 32009KT P6SM SKC
     FM282100 22003KT P6SM SCT080=



000
FTUS42 KRAH 281132
TAFRDU
TAF
KRDU 281132Z 2812/2912 32007KT P6SM SKC
      TEMPO 2813/2816 33010G17KT
     FM282000 28006KT P6SM FEW100
     FM290300 VRB03KT P6SM SCT080=



000
FTUS42 KRAH 281132
TAFGSO
TAF
KGSO 281132Z 2812/2912 32009KT P6SM SKC
     FM282100 22003KT P6SM SCT080=



000
FTUS42 KRAH 281132
TAFRWI
TAF
KRWI 281132Z 2812/2912 32008KT P6SM SKC
     FM282300 VRB03KT P6SM FEW080=



000
FTUS42 KRAH 281132
TAFINT
TAF
KINT 281132Z 2812/2912 32009KT P6SM SKC
     FM282100 22003KT P6SM SCT080=



000
FTUS42 KRAH 281132
TAFFAY
TAF
KFAY 281132Z 2812/2912 32008KT P6SM SKC
      TEMPO 2813/2816 33010G16KT
     FM282300 VRB03KT P6SM FEW080=



000
FTUS42 KRAH 281132
TAFGSO
TAF
KGSO 281132Z 2812/2912 32009KT P6SM SKC
     FM282100 22003KT P6SM SCT080=



000
FTUS42 KRAH 280906 AAA
TAFRDU
TAF AMD
KRDU 280906Z 2809/2906 32007KT P6SM SKC
      TEMPO 2813/2816 33010G17KT
     FM282300 VRB03KT P6SM SKC=



000
FTUS42 KRAH 280906 AAA
TAFRDU
TAF AMD
KRDU 280906Z 2809/2906 32007KT P6SM SKC
      TEMPO 2813/2816 33010G17KT
     FM282300 VRB03KT P6SM SKC=



000
FTUS42 KRAH 280906 AAA
TAFGSO
TAF AMD
KGSO 280906Z 2809/2906 32009KT P6SM FEW040
     FM281100 32009KT P6SM SKC
      TEMPO 2812/2816 33010G16KT
     FM282300 22003KT P6SM SKC=



000
FTUS42 KRAH 280906 AAA
TAFGSO
TAF AMD
KGSO 280906Z 2809/2906 32009KT P6SM FEW040
     FM281100 32009KT P6SM SKC
      TEMPO 2812/2816 33010G16KT
     FM282300 22003KT P6SM SKC=



000
FTUS42 KRAH 280529
TAFGSO
TAF
KGSO 280529Z 2806/2906 32009KT P6SM FEW040
     FM281100 32009KT P6SM SKC
      TEMPO 2812/2816 33010G16KT
     FM282300 22003KT P6SM SKC=



000
FTUS42 KRAH 280529
TAFFAY
TAF
KFAY 280529Z 2806/2906 32008KT P6SM SKC
      TEMPO 2813/2816 33010G16KT
     FM282300 VRB03KT P6SM SKC=



000
FTUS42 KRAH 280529
TAFINT
TAF
KINT 280529Z 2806/2906 32009KT P6SM SCT040
     FM281100 32009KT P6SM SKC
      TEMPO 2812/2816 33010G16KT
     FM282300 22003KT P6SM SKC=



000
FTUS42 KRAH 280529
TAFRWI
TAF
KRWI 280529Z 2806/2906 32008KT P6SM SKC
     FM282300 VRB03KT P6SM SKC=



000
FTUS42 KRAH 280529
TAFRDU
TAF
KRDU 280529Z 2806/2906 32007KT P6SM SKC
      TEMPO 2813/2816 33010G17KT
     FM282300 VRB03KT P6SM SKC=



000
FTUS42 KRAH 280529
TAFINT
TAF
KINT 280529Z 2806/2906 32009KT P6SM SCT040
     FM281100 32009KT P6SM SKC
      TEMPO 2812/2816 33010G16KT
     FM282300 22003KT P6SM SKC=



000
FTUS42 KRAH 280529
TAFRDU
TAF
KRDU 280529Z 2806/2906 32007KT P6SM SKC
      TEMPO 2813/2816 33010G17KT
     FM282300 VRB03KT P6SM SKC=



000
FTUS42 KRAH 280529
TAFRWI
TAF
KRWI 280529Z 2806/2906 32008KT P6SM SKC
     FM282300 VRB03KT P6SM SKC=



000
FTUS42 KRAH 280529
TAFFAY
TAF
KFAY 280529Z 2806/2906 32008KT P6SM SKC
      TEMPO 2813/2816 33010G16KT
     FM282300 VRB03KT P6SM SKC=



000
FTUS42 KRAH 280529
TAFGSO
TAF
KGSO 280529Z 2806/2906 32009KT P6SM FEW040
     FM281100 32009KT P6SM SKC
      TEMPO 2812/2816 33010G16KT
     FM282300 22003KT P6SM SKC=



000
FTUS42 KRAH 280151 AAA
TAFGSO
TAF AMD
KGSO 280151Z 2802/2824 32009KT P6SM BKN050=



000
FTUS42 KRAH 280151 AAA
TAFGSO
TAF AMD
KGSO 280151Z 2802/2824 32009KT P6SM BKN050=



000
FTUS42 KRAH 280151 AAA
TAFRDU
TAF AMD
KRDU 280151Z 2802/2824 30005KT P6SM FEW060=



000
FTUS42 KRAH 280151 AAA
TAFGSO
TAF AMD
KGSO 280151Z 2802/2824 32009KT P6SM BKN050=



000
FTUS42 KRAH 280151 AAA
TAFRDU
TAF AMD
KRDU 280151Z 2802/2824 30005KT P6SM FEW060=



000
FTUS42 KRAH 280151 AAA
TAFGSO
TAF AMD
KGSO 280151Z 2802/2824 32009KT P6SM BKN050=



000
FTUS42 KRAH 280151 AAA
TAFRDU
TAF AMD
KRDU 280151Z 2802/2824 30005KT P6SM FEW060=



000
FTUS42 KRAH 280151 AAA
TAFRDU
TAF AMD
KRDU 280151Z 2802/2824 30005KT P6SM FEW060=



000
FTUS42 KRAH 272333
TAFINT
TAF
KINT 272333Z 2800/2824 31007KT P6SM SKC=



000
FTUS42 KRAH 272333
TAFGSO
TAF
KGSO 272333Z 2800/2824 32007KT P6SM SCT050=



000
FTUS42 KRAH 272333
TAFFAY
TAF
KFAY 272333Z 2800/2824 27005KT P6SM FEW045=



000
FTUS42 KRAH 272333
TAFRWI
TAF
KRWI 272333Z 2800/2824 31005KT P6SM OVC060=



000
FTUS42 KRAH 272333
TAFRDU
TAF
KRDU 272333Z 2800/2824 32005KT P6SM FEW070 SCT250=



000
FTUS42 KRAH 272333
TAFFAY
TAF
KFAY 272333Z 2800/2824 27005KT P6SM FEW045=



000
FTUS42 KRAH 272333
TAFRDU
TAF
KRDU 272333Z 2800/2824 32005KT P6SM FEW070 SCT250=



000
FTUS42 KRAH 272333
TAFRWI
TAF
KRWI 272333Z 2800/2824 31005KT P6SM OVC060=



000
FTUS42 KRAH 272333
TAFGSO
TAF
KGSO 272333Z 2800/2824 32007KT P6SM SCT050=



000
FTUS42 KRAH 272333
TAFINT
TAF
KINT 272333Z 2800/2824 31007KT P6SM SKC=



000
FTUS42 KRAH 272038 AAA
TAFFAY
TAF AMD
KFAY 272038Z 2721/2818 33009KT P6SM SCT035 BKN080
     FM272200 32008KT P6SM SKC=



000
FTUS42 KRAH 272038 AAA
TAFFAY
TAF AMD
KFAY 272038Z 2721/2818 33009KT P6SM SCT035 BKN080
     FM272200 32008KT P6SM SKC=



000
FTUS42 KRAH 272038 AAA
TAFRDU
TAF AMD
KRDU 272038Z 2721/2818 30006KT P6SM SCT018 BKN100 BKN250
      TEMPO 2721/2722 BKN018 BKN050
     FM272200 32010G16KT P6SM BKN050
     FM280100 32007KT P6SM SKC=



000
FTUS42 KRAH 272038 AAA
TAFRDU
TAF AMD
KRDU 272038Z 2721/2818 30006KT P6SM SCT018 BKN100 BKN250
      TEMPO 2721/2722 BKN018 BKN050
     FM272200 32010G16KT P6SM BKN050
     FM280100 32007KT P6SM SKC=



000
FTUS42 KRAH 271737
TAFRDU
TAF
KRDU 271737Z 2718/2818 32008G15KT P6SM -RA FEW008 SCT020 OVC050
      TEMPO 2718/2722 BKN008 BKN050
     FM272200 32010G16KT P6SM BKN050
     FM280100 32007KT P6SM SKC=



000
FTUS42 KRAH 271737
TAFRWI
TAF
KRWI 271737Z 2718/2818 33010KT P6SM BKN015 BKN060
      TEMPO 2718/2722 SCT015 BKN060
     FM272200 32010G16KT P6SM BKN050
     FM280100 32007KT P6SM SKC=



000
FTUS42 KRAH 271737
TAFGSO
TAF
KGSO 271737Z 2718/2818 32010G15KT P6SM BKN012 BKN050
      TEMPO 2718/2721 SCT012 BKN050
     FM272100 32010G16KT P6SM BKN050
     FM280000 32007KT P6SM SKC=



000
FTUS42 KRAH 271737
TAFFAY
TAF
KFAY 271737Z 2718/2818 29008G15KT P6SM SCT030
      TEMPO 2718/2722 BKN035
     FM272200 32008KT P6SM SKC=



000
FTUS42 KRAH 271737
TAFINT
TAF
KINT 271737Z 2718/2818 32009G15KT P6SM SCT009 BKN040
      TEMPO 2718/2720 BKN009 BKN040
     FM272000 32010G16KT P6SM BKN050
     FM272300 32007KT P6SM SKC=



000
FTUS42 KRAH 271737
TAFRDU
TAF
KRDU 271737Z 2718/2818 32008G15KT P6SM -RA FEW008 SCT020 OVC050
      TEMPO 2718/2722 BKN008 BKN050
     FM272200 32010G16KT P6SM BKN050
     FM280100 32007KT P6SM SKC=



000
FTUS42 KRAH 271737
TAFINT
TAF
KINT 271737Z 2718/2818 32009G15KT P6SM SCT009 BKN040
      TEMPO 2718/2720 BKN009 BKN040
     FM272000 32010G16KT P6SM BKN050
     FM272300 32007KT P6SM SKC=



000
FTUS42 KRAH 271737
TAFFAY
TAF
KFAY 271737Z 2718/2818 29008G15KT P6SM SCT030
      TEMPO 2718/2722 BKN035
     FM272200 32008KT P6SM SKC=



000
FTUS42 KRAH 271737
TAFRWI
TAF
KRWI 271737Z 2718/2818 33010KT P6SM BKN015 BKN060
      TEMPO 2718/2722 SCT015 BKN060
     FM272200 32010G16KT P6SM BKN050
     FM280100 32007KT P6SM SKC=



000
FTUS42 KRAH 271737
TAFGSO
TAF
KGSO 271737Z 2718/2818 32010G15KT P6SM BKN012 BKN050
      TEMPO 2718/2721 SCT012 BKN050
     FM272100 32010G16KT P6SM BKN050
     FM280000 32007KT P6SM SKC=



000
FTUS42 KRAH 271619 AAC
TAFINT
TAF AMD
KINT 271619Z 2716/2812 33009KT P6SM BKN009 OVC030
      TEMPO 2716/2720 32010G18KT SCT009 OVC030
     FM272000 32010G15KT P6SM BKN035
     FM272200 31008KT P6SM SKC=



000
FTUS42 KRAH 271619 AAC
TAFINT
TAF AMD
KINT 271619Z 2716/2812 33009KT P6SM BKN009 OVC030
      TEMPO 2716/2720 32010G18KT SCT009 OVC030
     FM272000 32010G15KT P6SM BKN035
     FM272200 31008KT P6SM SKC=



000
FTUS42 KRAH 271609 AAB
TAFINT
TAF AMD
KINT 271609Z 2716/2812 30008KT P6SM SCT030 BKN035 OVC080
      TEMPO 2716/2720 32010G18KT
     FM272200 31008KT P6SM SKC=



000
FTUS42 KRAH 271609 AAB
TAFINT
TAF AMD
KINT 271609Z 2716/2812 30008KT P6SM SCT030 BKN035 OVC080
      TEMPO 2716/2720 32010G18KT
     FM272200 31008KT P6SM SKC=



000
FTUS42 KRAH 271344 AAA
TAFGSO
TAF AMD
KGSO 271344Z 2714/2812 02004KT 5SM RA BR SCT005 BKN018 OVC035
      TEMPO 2714/2716 P6SM NSW BKN005
     FM271600 34007KT P6SM -RA SCT008 BKN020
      TEMPO 2716/2720 32010G20KT
     FM272200 31008KT P6SM SKC=



000
FTUS42 KRAH 271344 AAA
TAFRDU
TAF AMD
KRDU 271344Z 2714/2812 16003KT 3SM -RA BR BKN004 BKN050 OVC080
     FM271700 33012G22KT P6SM SCT035 SCT080
     FM272300 31010KT P6SM SKC=



000
FTUS42 KRAH 271344 AAA
TAFRDU
TAF AMD
KRDU 271344Z 2714/2812 16003KT 3SM -RA BR BKN004 BKN050 OVC080
     FM271700 33012G22KT P6SM SCT035 SCT080
     FM272300 31010KT P6SM SKC=



000
FTUS42 KRAH 271343 AAA
TAFINT
TAF AMD
KINT 271343Z 2714/2812 36006KT P6SM -RA BKN004 OVC035
      TEMPO 2716/2720 32010G20KT
     FM272200 31008KT P6SM SKC=



000
FTUS42 KRAH 271343 AAA
TAFINT
TAF AMD
KINT 271343Z 2714/2812 36006KT P6SM -RA BKN004 OVC035
      TEMPO 2716/2720 32010G20KT
     FM272200 31008KT P6SM SKC=



000
FTUS42 KRAH 271126
TAFFAY
TAF
KFAY 271126Z 2712/2812 17004KT 6SM BR SCT002 BKN070
      TEMPO 2712/2713 3SM BR VV002
     FM271400 26010G20KT P6SM SCT015
     FM271700 31012G22KT P6SM SCT035
      TEMPO 2717/2720 BKN035
     FM272300 33010KT P6SM SKC=



000
FTUS42 KRAH 271126
TAFRWI
TAF
KRWI 271126Z 2712/2812 16007KT P6SM FEW005 OVC060
      TEMPO 2712/2715 -RA BKN012
     FM271600 30010G18KT P6SM BKN030
     FM272100 33012G20KT P6SM FEW025
     FM272200 30010KT P6SM FEW030=



000
FTUS42 KRAH 271126
TAFINT
TAF
KINT 271126Z 2712/2812 27004KT 5SM BR BKN003 OVC060
      TEMPO 2712/2714 P6SM -RA SCT003 BKN016
     FM271400 33009KT P6SM SCT030 BKN045
      TEMPO 2716/2720 32010G20KT
     FM272200 31008KT P6SM SKC=



000
FTUS42 KRAH 271126
TAFRDU
TAF
KRDU 271126Z 2712/2812 15005KT P6SM SCT003 OVC060
      TEMPO 2712/2714 6SM -RA BKN003
     FM271400 26010KT P6SM BKN012 OVC040
     FM271700 33012G22KT P6SM SCT035 SCT080
     FM272300 31010KT P6SM SKC=



000
FTUS42 KRAH 271126
TAFGSO
TAF
KGSO 271126Z 2712/2812 27004KT 5SM BR BKN003 OVC060
      TEMPO 2712/2714 P6SM -RA SCT003 BKN016
     FM271400 33009KT P6SM SCT030 BKN045
      TEMPO 2716/2720 32010G20KT
     FM272200 31008KT P6SM SKC=



000
FTUS42 KRAH 271126
TAFRDU
TAF
KRDU 271126Z 2712/2812 15005KT P6SM SCT003 OVC060
      TEMPO 2712/2714 6SM -RA BKN003
     FM271400 26010KT P6SM BKN012 OVC040
     FM271700 33012G22KT P6SM SCT035 SCT080
     FM272300 31010KT P6SM SKC=



000
FTUS42 KRAH 271126
TAFFAY
TAF
KFAY 271126Z 2712/2812 17004KT 6SM BR SCT002 BKN070
      TEMPO 2712/2713 3SM BR VV002
     FM271400 26010G20KT P6SM SCT015
     FM271700 31012G22KT P6SM SCT035
      TEMPO 2717/2720 BKN035
     FM272300 33010KT P6SM SKC=



000
FTUS42 KRAH 271126
TAFINT
TAF
KINT 271126Z 2712/2812 27004KT 5SM BR BKN003 OVC060
      TEMPO 2712/2714 P6SM -RA SCT003 BKN016
     FM271400 33009KT P6SM SCT030 BKN045
      TEMPO 2716/2720 32010G20KT
     FM272200 31008KT P6SM SKC=



000
FTUS42 KRAH 271126
TAFGSO
TAF
KGSO 271126Z 2712/2812 27004KT 5SM BR BKN003 OVC060
      TEMPO 2712/2714 P6SM -RA SCT003 BKN016
     FM271400 33009KT P6SM SCT030 BKN045
      TEMPO 2716/2720 32010G20KT
     FM272200 31008KT P6SM SKC=



000
FTUS42 KRAH 271126
TAFRWI
TAF
KRWI 271126Z 2712/2812 16007KT P6SM FEW005 OVC060
      TEMPO 2712/2715 -RA BKN012
     FM271600 30010G18KT P6SM BKN030
     FM272100 33012G20KT P6SM FEW025
     FM272200 30010KT P6SM FEW030=



000
FTUS42 KRAH 271052 AAC
TAFFAY
TAF AMD
KFAY 271052Z 2711/2806 17004KT 6SM BR SCT002 BKN060
      TEMPO 2711/2713 3SM BR VV002
     FM271400 26010G20KT P6SM SCT025
     FM271700 31012G22KT P6SM SCT035
      TEMPO 2717/2720 BKN035
     FM272200 33010KT P6SM SKC=



000
FTUS42 KRAH 271052 AAC
TAFFAY
TAF AMD
KFAY 271052Z 2711/2806 17004KT 6SM BR SCT002 BKN060
      TEMPO 2711/2713 3SM BR VV002
     FM271400 26010G20KT P6SM SCT025
     FM271700 31012G22KT P6SM SCT035
      TEMPO 2717/2720 BKN035
     FM272200 33010KT P6SM SKC=



000
FTUS42 KRAH 271051 AAC
TAFINT
TAF AMD
KINT 271051Z 2711/2806 04005KT 6SM BR SCT002 OVC014
      TEMPO 2711/2713 4SM -RA BR BKN002
     FM271300 33009KT P6SM SCT030 OVC060
      TEMPO 2716/2720 32010G20KT
     FM272200 31008KT P6SM FEW030=



000
FTUS42 KRAH 271051 AAC
TAFINT
TAF AMD
KINT 271051Z 2711/2806 04005KT 6SM BR SCT002 OVC014
      TEMPO 2711/2713 4SM -RA BR BKN002
     FM271300 33009KT P6SM SCT030 OVC060
      TEMPO 2716/2720 32010G20KT
     FM272200 31008KT P6SM FEW030=



000
FTUS42 KRAH 270909 AAB
TAFFAY
TAF AMD
KFAY 270909Z 2709/2806 17004KT 2SM BR SCT002 BKN060
      TEMPO 2709/2711 1/2SM FG VV002
     FM271400 26010G20KT P6SM SCT025
     FM271700 31012G22KT P6SM SCT035
      TEMPO 2717/2720 BKN035
     FM272200 33010KT P6SM SKC=



000
FTUS42 KRAH 270909 AAB
TAFFAY
TAF AMD
KFAY 270909Z 2709/2806 17004KT 2SM BR SCT002 BKN060
      TEMPO 2709/2711 1/2SM FG VV002
     FM271400 26010G20KT P6SM SCT025
     FM271700 31012G22KT P6SM SCT035
      TEMPO 2717/2720 BKN035
     FM272200 33010KT P6SM SKC=



000
FTUS42 KRAH 270857 AAB
TAFINT
TAF AMD
KINT 270857Z 2709/2806 17005KT P6SM SCT007 OVC014
      TEMPO 2709/2713 -RA BKN007
     FM271300 33009KT P6SM SCT030 OVC060
      TEMPO 2716/2720 32010G20KT
     FM272200 31008KT P6SM FEW030=



000
FTUS42 KRAH 270857 AAB
TAFINT
TAF AMD
KINT 270857Z 2709/2806 17005KT P6SM SCT007 OVC014
      TEMPO 2709/2713 -RA BKN007
     FM271300 33009KT P6SM SCT030 OVC060
      TEMPO 2716/2720 32010G20KT
     FM272200 31008KT P6SM FEW030=



000
FTUS42 KRAH 270856 AAB
TAFGSO
TAF AMD
KGSO 270856Z 2709/2806 17005KT P6SM SCT008 OVC018
      TEMPO 2709/2713 6SM -RA BKN008
     FM271300 33009KT P6SM SCT030 OVC060
      TEMPO 2716/2720 32010G20KT
     FM272200 31008KT P6SM FEW030=



000
FTUS42 KRAH 270856 AAB
TAFGSO
TAF AMD
KGSO 270856Z 2709/2806 17005KT P6SM SCT008 OVC018
      TEMPO 2709/2713 6SM -RA BKN008
     FM271300 33009KT P6SM SCT030 OVC060
      TEMPO 2716/2720 32010G20KT
     FM272200 31008KT P6SM FEW030=



000
FTUS42 KRAH 270855 AAA
TAFRDU
TAF AMD
KRDU 270855Z 2709/2806 16005KT P6SM SCT003 BKN035
      TEMPO 2710/2714 6SM -RA BKN003
     FM271400 26010KT P6SM SCT020 BKN050
     FM271700 33012G22KT P6SM SCT035 SCT080
     FM272300 31010KT P6SM SKC=



000
FTUS42 KRAH 270855 AAA
TAFRDU
TAF AMD
KRDU 270855Z 2709/2806 16005KT P6SM SCT003 BKN035
      TEMPO 2710/2714 6SM -RA BKN003
     FM271400 26010KT P6SM SCT020 BKN050
     FM271700 33012G22KT P6SM SCT035 SCT080
     FM272300 31010KT P6SM SKC=



000
FTUS42 KRAH 270718 AAA
TAFFAY
TAF AMD
KFAY 270718Z 2707/2806 17004KT 3SM BR SCT030 BKN060
      TEMPO 2707/2709 1/2SM FG VV002
     FM271400 26010G20KT P6SM SCT025
     FM271700 31012G22KT P6SM SCT035
      TEMPO 2717/2720 BKN035
     FM272200 33010KT P6SM SKC=



000
FTUS42 KRAH 270718 AAA
TAFFAY
TAF AMD
KFAY 270718Z 2707/2806 17004KT 3SM BR SCT030 BKN060
      TEMPO 2707/2709 1/2SM FG VV002
     FM271400 26010G20KT P6SM SCT025
     FM271700 31012G22KT P6SM SCT035
      TEMPO 2717/2720 BKN035
     FM272200 33010KT P6SM SKC=



000
FTUS42 KRAH 270630 AAA
TAFINT
TAF AMD
KINT 270630Z 2707/2806 17005KT P6SM OVC026
      TEMPO 2709/2713 -RA
     FM271300 33009KT P6SM SCT030 OVC060
      TEMPO 2716/2720 32010G20KT
     FM272200 31008KT P6SM FEW030=



000
FTUS42 KRAH 270630 AAA
TAFINT
TAF AMD
KINT 270630Z 2707/2806 17005KT P6SM OVC026
      TEMPO 2709/2713 -RA
     FM271300 33009KT P6SM SCT030 OVC060
      TEMPO 2716/2720 32010G20KT
     FM272200 31008KT P6SM FEW030=



000
FTUS42 KRAH 270630 AAA
TAFGSO
TAF AMD
KGSO 270630Z 2707/2806 17005KT P6SM OVC028
      TEMPO 2709/2713 -RA
     FM271300 33009KT P6SM SCT030 OVC060
      TEMPO 2716/2720 32010G20KT
     FM272200 31008KT P6SM FEW030=



000
FTUS42 KRAH 270630 AAA
TAFGSO
TAF AMD
KGSO 270630Z 2707/2806 17005KT P6SM OVC028
      TEMPO 2709/2713 -RA
     FM271300 33009KT P6SM SCT030 OVC060
      TEMPO 2716/2720 32010G20KT
     FM272200 31008KT P6SM FEW030=



000
FTUS42 KRAH 270539
TAFRWI
TAF
KRWI 270539Z 2706/2806 17004KT P6SM SCT040
     FM271000 16007KT P6SM FEW012 OVC060
      TEMPO 2711/2715 -RA BKN035
     FM271600 30010G18KT P6SM OVC030
     FM272100 33012G20KT P6SM FEW025
     FM280100 30010KT P6SM FEW030=



000
FTUS42 KRAH 270539
TAFINT
TAF
KINT 270539Z 2706/2806 17005KT P6SM OVC035
      TEMPO 2709/2713 -RA
     FM271300 33009KT P6SM SCT030 OVC060
      TEMPO 2716/2720 32010G20KT
     FM272200 31008KT P6SM FEW030=



000
FTUS42 KRAH 270539
TAFRDU
TAF
KRDU 270539Z 2706/2806 20005KT P6SM BKN050
      TEMPO 2710/2714 -RA
     FM271400 26010KT P6SM SCT020 BKN050
     FM271700 33012G22KT P6SM SCT035 SCT080
     FM272300 31010KT P6SM SKC=



000
FTUS42 KRAH 270539
TAFFAY
TAF
KFAY 270539Z 2706/2806 17004KT P6SM SCT030 BKN060
     FM271400 26010G20KT P6SM SCT025
     FM271700 31012G22KT P6SM SCT035
      TEMPO 2717/2720 BKN035
     FM272200 33010KT P6SM SKC=



000
FTUS42 KRAH 270539
TAFFAY
TAF
KFAY 270539Z 2706/2806 17004KT P6SM SCT030 BKN060
     FM271400 26010G20KT P6SM SCT025
     FM271700 31012G22KT P6SM SCT035
      TEMPO 2717/2720 BKN035
     FM272200 33010KT P6SM SKC=



000
FTUS42 KRAH 270539
TAFGSO
TAF
KGSO 270539Z 2706/2806 17005KT P6SM OVC035
      TEMPO 2709/2713 -RA
     FM271300 33009KT P6SM SCT030 OVC060
      TEMPO 2716/2720 32010G20KT
     FM272200 31008KT P6SM FEW030=



000
FTUS42 KRAH 270539
TAFGSO
TAF
KGSO 270539Z 2706/2806 17005KT P6SM OVC035
      TEMPO 2709/2713 -RA
     FM271300 33009KT P6SM SCT030 OVC060
      TEMPO 2716/2720 32010G20KT
     FM272200 31008KT P6SM FEW030=



000
FTUS42 KRAH 270539
TAFRWI
TAF
KRWI 270539Z 2706/2806 17004KT P6SM SCT040
     FM271000 16007KT P6SM FEW012 OVC060
      TEMPO 2711/2715 -RA BKN035
     FM271600 30010G18KT P6SM OVC030
     FM272100 33012G20KT P6SM FEW025
     FM280100 30010KT P6SM FEW030=



000
FTUS42 KRAH 270539
TAFRDU
TAF
KRDU 270539Z 2706/2806 20005KT P6SM BKN050
      TEMPO 2710/2714 -RA
     FM271400 26010KT P6SM SCT020 BKN050
     FM271700 33012G22KT P6SM SCT035 SCT080
     FM272300 31010KT P6SM SKC=



000
FTUS42 KRAH 270539
TAFINT
TAF
KINT 270539Z 2706/2806 17005KT P6SM OVC035
      TEMPO 2709/2713 -RA
     FM271300 33009KT P6SM SCT030 OVC060
      TEMPO 2716/2720 32010G20KT
     FM272200 31008KT P6SM FEW030=



000
FTUS42 KRAH 270501 AAB
TAFFAY
TAF AMD
KFAY 270501Z 2705/2724 17004KT P6SM BKN060
      TEMPO 2705/2707 1SM BR SCT001
     FM271200 VRB03KT P6SM SCT030
     FM271500 31010KT P6SM BKN030=



000
FTUS42 KRAH 270501 AAB
TAFFAY
TAF AMD
KFAY 270501Z 2705/2724 17004KT P6SM BKN060
      TEMPO 2705/2707 1SM BR SCT001
     FM271200 VRB03KT P6SM SCT030
     FM271500 31010KT P6SM BKN030=



000
FTUS42 KRAH 270445 AAC
TAFRDU
TAF AMD
KRDU 270445Z 2705/2724 00000KT 6SM BR SCT002 BKN050
      TEMPO 2705/2708 1SM BR
     FM270800 VRB02KT P6SM BKN015
     FM271500 31010KT P6SM BKN030=



000
FTUS42 KRAH 270445 AAC
TAFRDU
TAF AMD
KRDU 270445Z 2705/2724 00000KT 6SM BR SCT002 BKN050
      TEMPO 2705/2708 1SM BR
     FM270800 VRB02KT P6SM BKN015
     FM271500 31010KT P6SM BKN030=



000
FTUS42 KRAH 270445 AAC
TAFRDU
TAF AMD
KRDU 270445Z 2705/2724 00000KT 6SM BR SCT002 BKN050
      TEMPO 2705/2708 1SM BR
     FM270800 VRB02KT P6SM BKN015
     FM271500 31010KT P6SM BKN030=



000
FTUS42 KRAH 270445 AAC
TAFRDU
TAF AMD
KRDU 270445Z 2705/2724 00000KT 6SM BR SCT002 BKN050
      TEMPO 2705/2708 1SM BR
     FM270800 VRB02KT P6SM BKN015
     FM271500 31010KT P6SM BKN030=



000
FTUS42 KRAH 270341 AAB
TAFRDU
TAF AMD
KRDU 270341Z 2704/2724 00000KT 1/2SM FG BKN002
      TEMPO 2704/2708 5SM BR SCT002
     FM270800 VRB02KT P6SM BKN015
     FM271500 31010KT P6SM BKN030=



000
FTUS42 KRAH 270341 AAB
TAFRDU
TAF AMD
KRDU 270341Z 2704/2724 00000KT 1/2SM FG BKN002
      TEMPO 2704/2708 5SM BR SCT002
     FM270800 VRB02KT P6SM BKN015
     FM271500 31010KT P6SM BKN030=



000
FTUS42 KRAH 270341 AAB
TAFRDU
TAF AMD
KRDU 270341Z 2704/2724 00000KT 1/2SM FG BKN002
      TEMPO 2704/2708 5SM BR SCT002
     FM270800 VRB02KT P6SM BKN015
     FM271500 31010KT P6SM BKN030=



000
FTUS42 KRAH 270341 AAB
TAFRDU
TAF AMD
KRDU 270341Z 2704/2724 00000KT 1/2SM FG BKN002
      TEMPO 2704/2708 5SM BR SCT002
     FM270800 VRB02KT P6SM BKN015
     FM271500 31010KT P6SM BKN030=



000
FTUS42 KRAH 270208 AAA
TAFFAY
TAF AMD
KFAY 270208Z 2702/2724 VRB03KT 3SM BR SKC
      TEMPO 2702/2706 3/4SM BR SCT001
     FM271200 VRB03KT P6SM SCT030
     FM271500 31010KT P6SM BKN030=



000
FTUS42 KRAH 270208 AAA
TAFFAY
TAF AMD
KFAY 270208Z 2702/2724 VRB03KT 3SM BR SKC
      TEMPO 2702/2706 3/4SM BR SCT001
     FM271200 VRB03KT P6SM SCT030
     FM271500 31010KT P6SM BKN030=



000
FTUS42 KRAH 270030 AAA
TAFRWI
TAF AMD
KRWI 270030Z 2701/2724 VRB03KT P6SM BKN015
     FM270200 00000KT P6SM SCT030
      TEMPO 2710/2714 OVC010
     FM271500 31010KT P6SM BKN030=



000
FTUS42 KRAH 270030 AAA
TAFRWI
TAF AMD
KRWI 270030Z 2701/2724 VRB03KT P6SM BKN015
     FM270200 00000KT P6SM SCT030
      TEMPO 2710/2714 OVC010
     FM271500 31010KT P6SM BKN030=



000
FTUS42 KRAH 270029 AAA
TAFRDU
TAF AMD
KRDU 270029Z 2700/2724 00000KT P6SM BKN015
     FM270200 00000KT P6SM SCT030
      TEMPO 2710/2714 OVC010
     FM271500 31010KT P6SM BKN030=



000
FTUS42 KRAH 270029 AAA
TAFRDU
TAF AMD
KRDU 270029Z 2700/2724 00000KT P6SM BKN015
     FM270200 00000KT P6SM SCT030
      TEMPO 2710/2714 OVC010
     FM271500 31010KT P6SM BKN030=



000
FTUS42 KRAH 262339
TAFFAY
TAF
KFAY 262339Z 2700/2724 VRB03KT P6SM SCT030
      TEMPO 2710/2714 OVC010
     FM271500 31010KT P6SM BKN030=



000
FTUS42 KRAH 262339
TAFFAY
TAF
KFAY 262339Z 2700/2724 VRB03KT P6SM SCT030
      TEMPO 2710/2714 OVC010
     FM271500 31010KT P6SM BKN030=



000
FTUS42 KRAH 262339
TAFRWI
TAF
KRWI 262339Z 2700/2724 32005KT P6SM SCT030
      TEMPO 2710/2714 VRB03KT OVC010
     FM271500 31010KT P6SM BKN030=



000
FTUS42 KRAH 262339
TAFRWI
TAF
KRWI 262339Z 2700/2724 32005KT P6SM SCT030
      TEMPO 2710/2714 VRB03KT OVC010
     FM271500 31010KT P6SM BKN030=



000
FTUS42 KRAH 262339
TAFINT
TAF
KINT 262339Z 2700/2724 00000KT P6SM SCT025
     FM270400 00000KT P6SM OVC015
      TEMPO 2704/2708 VRB03KT 3SM RA OVC007
     FM271500 32012G18KT P6SM BKN030=



000
FTUS42 KRAH 262339
TAFRDU
TAF
KRDU 262339Z 2700/2724 00000KT P6SM SCT030
      TEMPO 2710/2714 OVC010
     FM271500 31010KT P6SM BKN030=



000
FTUS42 KRAH 262339
TAFRDU
TAF
KRDU 262339Z 2700/2724 00000KT P6SM SCT030
      TEMPO 2710/2714 OVC010
     FM271500 31010KT P6SM BKN030=



000
FTUS42 KRAH 262339
TAFGSO
TAF
KGSO 262339Z 2700/2724 00000KT P6SM SCT025
     FM270400 00000KT P6SM OVC015
      TEMPO 2704/2708 VRB03KT 3SM RA OVC007
     FM271500 32012G18KT P6SM BKN030=



000
FTUS42 KRAH 262339
TAFGSO
TAF
KGSO 262339Z 2700/2724 00000KT P6SM SCT025
     FM270400 00000KT P6SM OVC015
      TEMPO 2704/2708 VRB03KT 3SM RA OVC007
     FM271500 32012G18KT P6SM BKN030=



000
FTUS42 KRAH 261930 AAA
TAFRWI
TAF AMD
KRWI 261930Z 2620/2718 31012G18KT 3SM -RA BR OVC015
      TEMPO 2620/2622 P6SM NSW BKN007 OVC015
     FM262200 31006KT P6SM SCT025 BKN050
     FM270900 VRB04KT P6SM -RA BKN025 OVC120
     FM271200 VRB04KT 6SM -RA BR BKN008 OVC050
     FM271700 31010G18KT P6SM SCT012 BKN025=



000
FTUS42 KRAH 261930 AAA
TAFRWI
TAF AMD
KRWI 261930Z 2620/2718 31012G18KT 3SM -RA BR OVC015
      TEMPO 2620/2622 P6SM NSW BKN007 OVC015
     FM262200 31006KT P6SM SCT025 BKN050
     FM270900 VRB04KT P6SM -RA BKN025 OVC120
     FM271200 VRB04KT 6SM -RA BR BKN008 OVC050
     FM271700 31010G18KT P6SM SCT012 BKN025=



000
FTUS42 KRAH 261833 AAA
TAFGSO
TAF AMD
KGSO 261833Z 2619/2718 01006KT P6SM -RA SCT008 OVC060
      TEMPO 2619/2620 BKN008 BKN060
     FM262000 33006KT P6SM SCT025 BKN060
     FM270400 VRB03KT P6SM -RA BKN025 OVC150
     FM270700 VRB03KT 6SM -RA BR BKN008 OVC040
     FM271300 31010G18KT P6SM SCT012 BKN035=



000
FTUS42 KRAH 261833 AAA
TAFGSO
TAF AMD
KGSO 261833Z 2619/2718 01006KT P6SM -RA SCT008 OVC060
      TEMPO 2619/2620 BKN008 BKN060
     FM262000 33006KT P6SM SCT025 BKN060
     FM270400 VRB03KT P6SM -RA BKN025 OVC150
     FM270700 VRB03KT 6SM -RA BR BKN008 OVC040
     FM271300 31010G18KT P6SM SCT012 BKN035=



000
FTUS42 KRAH 261739
TAFFAY
TAF
KFAY 261739Z 2618/2718 35010KT P6SM OVC015
      TEMPO 2618/2621 SCT012 OVC025
     FM262100 31006KT P6SM BKN025 BKN050
     FM270700 VRB04KT P6SM SCT025 BKN040 OVC070
     FM271100 VRB04KT 6SM -RA BR BKN008 OVC050
     FM271700 31010G18KT P6SM BKN040=



000
FTUS42 KRAH 261739
TAFRDU
TAF
KRDU 261739Z 2618/2718 34007KT P6SM -RA BKN012 OVC035
      TEMPO 2618/2621 SCT012 OVC025
     FM262100 31006KT P6SM SCT025 BKN050
     FM270700 VRB04KT P6SM -RA BKN025 OVC120
     FM271100 VRB04KT 6SM -RA BR BKN008 OVC050
     FM271600 31010G18KT P6SM SCT012 BKN025=



000
FTUS42 KRAH 261739
TAFRWI
TAF
KRWI 261739Z 2618/2718 03015KT P6SM -RA SCT012 OVC040
      TEMPO 2618/2622 BKN012 OVC050
     FM262200 31006KT P6SM SCT025 BKN050
     FM270900 VRB04KT P6SM -RA BKN025 OVC120
     FM271200 VRB04KT 6SM -RA BR BKN008 OVC050
     FM271700 31010G18KT P6SM SCT012 BKN025=



000
FTUS42 KRAH 261739
TAFINT
TAF
KINT 261739Z 2618/2718 35008KT P6SM -RA FEW012 BKN040 OVC060
      TEMPO 2618/2620 BKN012
     FM262000 31006KT P6SM SCT025 BKN060
     FM270400 VRB03KT P6SM -RA BKN025 OVC150
     FM270700 VRB03KT 6SM -RA BR BKN008 OVC040
     FM271300 31010G18KT P6SM SCT012 BKN035=



000
FTUS42 KRAH 261739
TAFGSO
TAF
KGSO 261739Z 2618/2718 33012G17KT P6SM -RA BKN012 OVC025
      TEMPO 2618/2620 SCT012 OVC025
     FM262000 31006KT P6SM SCT025 BKN060
     FM270400 VRB03KT P6SM -RA BKN025 OVC150
     FM270700 VRB03KT 6SM -RA BR BKN008 OVC040
     FM271300 31010G18KT P6SM SCT012 BKN035=



000
FTUS42 KRAH 261739
TAFINT
TAF
KINT 261739Z 2618/2718 35008KT P6SM -RA FEW012 BKN040 OVC060
      TEMPO 2618/2620 BKN012
     FM262000 31006KT P6SM SCT025 BKN060
     FM270400 VRB03KT P6SM -RA BKN025 OVC150
     FM270700 VRB03KT 6SM -RA BR BKN008 OVC040
     FM271300 31010G18KT P6SM SCT012 BKN035=



000
FTUS42 KRAH 261739
TAFRWI
TAF
KRWI 261739Z 2618/2718 03015KT P6SM -RA SCT012 OVC040
      TEMPO 2618/2622 BKN012 OVC050
     FM262200 31006KT P6SM SCT025 BKN050
     FM270900 VRB04KT P6SM -RA BKN025 OVC120
     FM271200 VRB04KT 6SM -RA BR BKN008 OVC050
     FM271700 31010G18KT P6SM SCT012 BKN025=



000
FTUS42 KRAH 261739
TAFGSO
TAF
KGSO 261739Z 2618/2718 33012G17KT P6SM -RA BKN012 OVC025
      TEMPO 2618/2620 SCT012 OVC025
     FM262000 31006KT P6SM SCT025 BKN060
     FM270400 VRB03KT P6SM -RA BKN025 OVC150
     FM270700 VRB03KT 6SM -RA BR BKN008 OVC040
     FM271300 31010G18KT P6SM SCT012 BKN035=



000
FTUS42 KRAH 261739
TAFFAY
TAF
KFAY 261739Z 2618/2718 35010KT P6SM OVC015
      TEMPO 2618/2621 SCT012 OVC025
     FM262100 31006KT P6SM BKN025 BKN050
     FM270700 VRB04KT P6SM SCT025 BKN040 OVC070
     FM271100 VRB04KT 6SM -RA BR BKN008 OVC050
     FM271700 31010G18KT P6SM BKN040=



000
FTUS42 KRAH 261739
TAFRDU
TAF
KRDU 261739Z 2618/2718 34007KT P6SM -RA BKN012 OVC035
      TEMPO 2618/2621 SCT012 OVC025
     FM262100 31006KT P6SM SCT025 BKN050
     FM270700 VRB04KT P6SM -RA BKN025 OVC120
     FM271100 VRB04KT 6SM -RA BR BKN008 OVC050
     FM271600 31010G18KT P6SM SCT012 BKN025=



000
FTUS42 KRAH 261515 AAC
TAFFAY
TAF AMD
KFAY 261515Z 2615/2712 01014G25KT 6SM -RA BR BKN010 BKN045 OVC070
      TEMPO 2615/2618 5SM RA BR SCT010 BKN045
     FM261800 32012G20KT P6SM BKN020 BKN060
     FM262300 29005KT P6SM SCT020=



000
FTUS42 KRAH 261515 AAC
TAFFAY
TAF AMD
KFAY 261515Z 2615/2712 01014G25KT 6SM -RA BR BKN010 BKN045 OVC070
      TEMPO 2615/2618 5SM RA BR SCT010 BKN045
     FM261800 32012G20KT P6SM BKN020 BKN060
     FM262300 29005KT P6SM SCT020=



000
FTUS42 KRAH 261511 AAB
TAFFAY
TAF AMD
KFAY 261511Z 2615/2712 01014G25KT 6SM -RA BR BKN010 BKN045 OVC070
      TEMPO 2615/2618 5SM RA BR
     FM261800 32012G20KT P6SM OVC020
     FM262300 29005KT P6SM SCT020=



000
FTUS42 KRAH 261511 AAB
TAFFAY
TAF AMD
KFAY 261511Z 2615/2712 01014G25KT 6SM -RA BR BKN010 BKN045 OVC070
      TEMPO 2615/2618 5SM RA BR
     FM261800 32012G20KT P6SM OVC020
     FM262300 29005KT P6SM SCT020=



000
FTUS42 KRAH 261407 AAB
TAFGSO
TAF AMD
KGSO 261407Z 2614/2712 03010G14KT 5SM -RA BR BKN008 OVC015
      TEMPO 2614/2618 2SM RA BR SCT007 OVC018
     FM261800 32009G16KT 4SM -RA BR OVC014
     FM262000 30006KT P6SM SCT035
     FM270800 15004KT 6SM -RA BR OVC012=



000
FTUS42 KRAH 261407 AAB
TAFGSO
TAF AMD
KGSO 261407Z 2614/2712 03010G14KT 5SM -RA BR BKN008 OVC015
      TEMPO 2614/2618 2SM RA BR SCT007 OVC018
     FM261800 32009G16KT 4SM -RA BR OVC014
     FM262000 30006KT P6SM SCT035
     FM270800 15004KT 6SM -RA BR OVC012=



000
FTUS42 KRAH 261407 AAA
TAFFAY
TAF AMD
KFAY 261407Z 2614/2712 33013G21KT 2SM -RA BR BKN010 OVC016
      TEMPO 2614/2618 5SM SHRA BR OVC004
     FM261800 32012G20KT 6SM -RA BR OVC022
     FM262300 29005KT P6SM SCT020=



000
FTUS42 KRAH 261407 AAA
TAFFAY
TAF AMD
KFAY 261407Z 2614/2712 33013G21KT 2SM -RA BR BKN010 OVC016
      TEMPO 2614/2618 5SM SHRA BR OVC004
     FM261800 32012G20KT 6SM -RA BR OVC022
     FM262300 29005KT P6SM SCT020=



000
FTUS42 KRAH 261404 AAA
TAFRDU
TAF AMD
KRDU 261404Z 2614/2712 02011G20KT 3SM -RA BR BKN007 BKN015 OVC070
      TEMPO 2614/2618 2SM RA BR SCT007 OVC015
     FM262000 35013G23KT P6SM OVC040=



000
FTUS42 KRAH 261404 AAA
TAFRDU
TAF AMD
KRDU 261404Z 2614/2712 02011G20KT 3SM -RA BR BKN007 BKN015 OVC070
      TEMPO 2614/2618 2SM RA BR SCT007 OVC015
     FM262000 35013G23KT P6SM OVC040=



000
FTUS42 KRAH 261402 AAB
TAFINT
TAF AMD
KINT 261402Z 2614/2712 04007KT 5SM -RA BR BKN009 OVC060
      TEMPO 2614/2616 2SM RA BR BKN007 OVC018
     FM261600 32009G16KT 4SM -RA BR OVC014
     FM262200 30006KT P6SM SCT035
     FM270800 15004KT 6SM -RA BR OVC012=



000
FTUS42 KRAH 261231 AAA
TAFGSO
TAF AMD
KGSO 261231Z 2613/2712 01012G20KT 5SM -RA BR BKN008 OVC040
      TEMPO 2613/2616 2SM RA BR SCT007 OVC018
     FM261600 32009G16KT 4SM -RA BR OVC014
     FM262200 30006KT P6SM SCT035
     FM270800 15004KT 6SM -RA BR OVC012=



000
FTUS42 KRAH 261231 AAA
TAFGSO
TAF AMD
KGSO 261231Z 2613/2712 01012G20KT 5SM -RA BR BKN008 OVC040
      TEMPO 2613/2616 2SM RA BR SCT007 OVC018
     FM261600 32009G16KT 4SM -RA BR OVC014
     FM262200 30006KT P6SM SCT035
     FM270800 15004KT 6SM -RA BR OVC012=



000
FTUS42 KRAH 261206 AAA
TAFINT
TAF AMD
KINT 261206Z 2612/2712 01012G20KT 5SM -RA BR SCT012 OVC040
      TEMPO 2612/2616 2SM RA BR BKN007 OVC018
     FM261600 32009G16KT 4SM -RA BR OVC014
     FM262200 30006KT P6SM SCT035
     FM270800 15004KT 6SM -RA BR OVC012=



000
FTUS42 KRAH 261206 AAA
TAFINT
TAF AMD
KINT 261206Z 2612/2712 01012G20KT 5SM -RA BR SCT012 OVC040
      TEMPO 2612/2616 2SM RA BR BKN007 OVC018
     FM261600 32009G16KT 4SM -RA BR OVC014
     FM262200 30006KT P6SM SCT035
     FM270800 15004KT 6SM -RA BR OVC012=



000
FTUS42 KRAH 261128
TAFGSO
TAF
KGSO 261128Z 2612/2712 01012G20KT 5SM -RA BR SCT012 OVC040
      TEMPO 2612/2616 2SM RA BR SCT007 OVC018
     FM261600 32009G16KT 4SM -RA BR OVC014
     FM262200 30006KT P6SM SCT035
     FM270800 15004KT 6SM -RA BR OVC012=



000
FTUS42 KRAH 261128
TAFFAY
TAF
KFAY 261128Z 2612/2712 35016G25KT 4SM -RA BR OVC008
      TEMPO 2612/2615 1 1/2SM SHRA BR OVC004
     FM261800 32012G20KT 6SM -RA BR OVC022
     FM262300 29005KT P6SM SCT020=



000
FTUS42 KRAH 261128
TAFFAY
TAF
KFAY 261128Z 2612/2712 35016G25KT 4SM -RA BR OVC008
      TEMPO 2612/2615 1 1/2SM SHRA BR OVC004
     FM261800 32012G20KT 6SM -RA BR OVC022
     FM262300 29005KT P6SM SCT020=



000
FTUS42 KRAH 261128
TAFRWI
TAF
KRWI 261128Z 2612/2712 02015G28KT 3SM RA BR OVC009
      TEMPO 2612/2614 1 1/2SM +RA BR OVC004
     FM261400 36015G27KT 6SM -RA BR OVC012
     FM262000 31012G22KT P6SM OVC022
     FM270100 29006KT P6SM SCT022
     FM270900 17005KT P6SM OVC035=



000
FTUS42 KRAH 261128
TAFGSO
TAF
KGSO 261128Z 2612/2712 01012G20KT 5SM -RA BR SCT012 OVC040
      TEMPO 2612/2616 2SM RA BR SCT007 OVC018
     FM261600 32009G16KT 4SM -RA BR OVC014
     FM262200 30006KT P6SM SCT035
     FM270800 15004KT 6SM -RA BR OVC012=



000
FTUS42 KRAH 261128
TAFINT
TAF
KINT 261128Z 2612/2712 01012G20KT 5SM -RA BR SCT012 OVC040
      TEMPO 2612/2616 2SM RA BR SCT007 OVC018
     FM261600 32009G16KT 4SM -RA BR OVC014
     FM262200 30006KT P6SM SCT035
     FM270800 15004KT 6SM -RA BR OVC012=



000
FTUS42 KRAH 261128
TAFINT
TAF
KINT 261128Z 2612/2712 01012G20KT 5SM -RA BR SCT012 OVC040
      TEMPO 2612/2616 2SM RA BR SCT007 OVC018
     FM261600 32009G16KT 4SM -RA BR OVC014
     FM262200 30006KT P6SM SCT035
     FM270800 15004KT 6SM -RA BR OVC012=



000
FTUS42 KRAH 261128
TAFRWI
TAF
KRWI 261128Z 2612/2712 02015G28KT 3SM RA BR OVC009
      TEMPO 2612/2614 1 1/2SM +RA BR OVC004
     FM261400 36015G27KT 6SM -RA BR OVC012
     FM262000 31012G22KT P6SM OVC022
     FM270100 29006KT P6SM SCT022
     FM270900 17005KT P6SM OVC035=



000
FTUS42 KRAH 261128
TAFRDU
TAF
KRDU 261128Z 2612/2712 02010G18KT 3SM RA BR BKN006 OVC015
      TEMPO 2612/2614 1 1/2SM +RA BR OVC003
     FM261400 33015G28KT 6SM -RA BR SCT015 OVC035
     FM262000 35013G23KT P6SM OVC040=



000
FTUS42 KRAH 261128
TAFRDU
TAF
KRDU 261128Z 2612/2712 02010G18KT 3SM RA BR BKN006 OVC015
      TEMPO 2612/2614 1 1/2SM +RA BR OVC003
     FM261400 33015G28KT 6SM -RA BR SCT015 OVC035
     FM262000 35013G23KT P6SM OVC040=



000
FTUS42 KRAH 261049 AAB
TAFFAY
TAF AMD
KFAY 261049Z 2611/2706 01015G25KT 4SM -RA BR OVC008
      TEMPO 2611/2613 1 1/2SM +RA BR OVC003
     FM261300 34016G30KT 2SM RA BR OVC008
     FM261800 32012G20KT 6SM -RA BR OVC018
     FM262300 29005KT P6SM SCT020=



000
FTUS42 KRAH 261049 AAB
TAFFAY
TAF AMD
KFAY 261049Z 2611/2706 01015G25KT 4SM -RA BR OVC008
      TEMPO 2611/2613 1 1/2SM +RA BR OVC003
     FM261300 34016G30KT 2SM RA BR OVC008
     FM261800 32012G20KT 6SM -RA BR OVC018
     FM262300 29005KT P6SM SCT020=



000
FTUS42 KRAH 261047 AAB
TAFGSO
TAF AMD
KGSO 261047Z 2611/2706 01012G20KT 5SM -RA BR SCT008 OVC040
      TEMPO 2611/2614 2SM RA BR BKN008 OVC015
     FM261600 32009G16KT 4SM -RA BR OVC014
     FM262200 30006KT P6SM SCT035=



000
FTUS42 KRAH 261047 AAB
TAFGSO
TAF AMD
KGSO 261047Z 2611/2706 01012G20KT 5SM -RA BR SCT008 OVC040
      TEMPO 2611/2614 2SM RA BR BKN008 OVC015
     FM261600 32009G16KT 4SM -RA BR OVC014
     FM262200 30006KT P6SM SCT035=



000
FTUS42 KRAH 261045 AAC
TAFRDU
TAF AMD
KRDU 261045Z 2611/2706 02010G18KT 3SM RA BR BKN006 OVC015
      TEMPO 2611/2613 1 1/2SM +RA BR OVC003
     FM261300 02015G30KT 2SM RA BR OVC008
     FM261500 33015G28KT 5SM -RA BR SCT015 OVC035
     FM262000 35013G23KT P6SM -RA OVC040=



000
FTUS42 KRAH 261045 AAC
TAFRDU
TAF AMD
KRDU 261045Z 2611/2706 02010G18KT 3SM RA BR BKN006 OVC015
      TEMPO 2611/2613 1 1/2SM +RA BR OVC003
     FM261300 02015G30KT 2SM RA BR OVC008
     FM261500 33015G28KT 5SM -RA BR SCT015 OVC035
     FM262000 35013G23KT P6SM -RA OVC040=



    US Dept of Commerce
    National Oceanic and Atmospheric Administration
    National Weather Service
    1325 East West Highway
    Silver Spring, MD 20910
    Page Author: NWS Internet Services Team
Disclaimer
Information Quality
Credits
Glossary
Privacy Policy
Freedom of Information Act (FOIA)
About Us
Career Opportunities